sensor_id;sensor_type;location;lat;lon;timestamp;pressure;altitude;pressure_sealevel;temperature;humidity
29549;BME280;16487;53.094;8.800;2022-12-17T00:00:27;102217.63;;;-2.63;100.00
29549;BME280;16487;53.094;8.800;2022-12-17T00:02:57;102219.25;;;-2.71;100.00
29549;BME280;16487;53.094;8.800;2022-12-17T00:05:25;102227.28;;;-2.66;100.00
29549;BME280;16487;53.094;8.800;2022-12-17T00:07:55;102236.59;;;-2.67;100.00
29549;BME280;16487;53.094;8.800;2022-12-17T00:10:23;102234.47;;;-2.70;100.00
29549;BME280;16487;53.094;8.800;2022-12-17T00:12:50;102243.13;;;-2.76;100.00
29549;BME280;16487;53.094;8.800;2022-12-17T00:15:17;102245.03;;;-2.85;100.00
29549;BME280;16487;53.094;8.800;2022-12-17T00:17:45;102244.69;;;-2.92;100.00
29549;BME280;16487;53.094;8.800;2022-12-17T00:20:14;102246.31;;;-2.91;100.00
29549;BME280;16487;53.094;8.800;2022-12-17T00:22:41;102249.81;;;-2.91;100.00
29549;BME280;16487;53.094;8.800;2022-12-17T00:25:08;102248.22;;;-2.92;100.00
29549;BME280;16487;53.094;8.800;2022-12-17T00:27:35;102257.03;;;-2.95;100.00
29549;BME280;16487;53.094;8.800;2022-12-17T00:30:03;102246.31;;;-2.91;100.00
29549;BME280;16487;53.094;8.800;2022-12-17T00:32:31;102250.94;;;-2.92;100.00
29549;BME280;16487;53.094;8.800;2022-12-17T00:34:58;102253.19;;;-2.94;100.00
29549;BME280;16487;53.094;8.800;2022-12-17T00:37:27;102260.25;;;-2.93;100.00
29549;BME280;16487;53.094;8.800;2022-12-17T00:39:54;102257.31;;;-3.05;100.00
29549;BME280;16487;53.094;8.800;2022-12-17T00:42:27;102269.19;;;-3.01;100.00
29549;BME280;16487;53.094;8.800;2022-12-17T00:44:54;102264.56;;;-3.00;100.00
29549;BME280;16487;53.094;8.800;2022-12-17T00:47:22;102271.59;;;-2.99;100.00
29549;BME280;16487;53.094;8.800;2022-12-17T00:49:50;102284.09;;;-3.07;100.00
29549;BME280;16487;53.094;8.800;2022-12-17T00:52:18;102286.47;;;-3.14;100.00
29549;BME280;16487;53.094;8.800;2022-12-17T00:54:46;102286.09;;;-3.21;100.00
29549;BME280;16487;53.094;8.800;2022-12-17T00:57:14;102288.53;;;-3.19;100.00
29549;BME280;16487;53.094;8.800;2022-12-17T00:59:41;102293.13;;;-3.28;100.00
29549;BME280;16487;53.094;8.800;2022-12-17T01:02:08;102295.03;;;-3.29;100.00
29549;BME280;16487;53.094;8.800;2022-12-17T01:04:37;102300.94;;;-3.35;100.00
29549;BME280;16487;53.094;8.800;2022-12-17T01:07:05;102292.25;;;-3.37;100.00
29549;BME280;16487;53.094;8.800;2022-12-17T01:09:32;102291.66;;;-3.34;100.00
29549;BME280;16487;53.094;8.800;2022-12-17T01:12:01;102292.56;;;-3.39;100.00
29549;BME280;16487;53.094;8.800;2022-12-17T01:14:28;102289.25;;;-3.36;100.00
29549;BME280;16487;53.094;8.800;2022-12-17T01:16:56;102301.38;;;-3.42;100.00
29549;BME280;16487;53.094;8.800;2022-12-17T01:19:23;102301.06;;;-3.40;100.00
29549;BME280;16487;53.094;8.800;2022-12-17T01:21:51;102302.78;;;-3.44;100.00
29549;BME280;16487;53.094;8.800;2022-12-17T01:24:18;102305.69;;;-3.41;100.00
29549;BME280;16487;53.094;8.800;2022-12-17T01:26:45;102309.19;;;-3.49;100.00
29549;BME280;16487;53.094;8.800;2022-12-17T01:29:18;102308.03;;;-3.48;100.00
29549;BME280;16487;53.094;8.800;2022-12-17T01:31:45;102309.50;;;-3.51;100.00
29549;BME280;16487;53.094;8.800;2022-12-17T01:34:12;102319.56;;;-3.51;100.00
29549;BME280;16487;53.094;8.800;2022-12-17T01:36:40;102321.69;;;-3.48;100.00
29549;BME280;16487;53.094;8.800;2022-12-17T01:39:07;102320.69;;;-3.52;100.00
29549;BME280;16487;53.094;8.800;2022-12-17T01:41:35;102336.38;;;-3.58;100.00
29549;BME280;16487;53.094;8.800;2022-12-17T01:47:07;102331.84;;;-3.62;100.00
29549;BME280;16487;53.094;8.800;2022-12-17T01:49:35;102331.78;;;-3.71;100.00
29549;BME280;16487;53.094;8.800;2022-12-17T01:52:04;102333.88;;;-3.68;100.00
29549;BME280;16487;53.094;8.800;2022-12-17T01:54:33;102344.09;;;-3.73;100.00
29549;BME280;16487;53.094;8.800;2022-12-17T01:57:01;102349.34;;;-3.77;100.00
29549;BME280;16487;53.094;8.800;2022-12-17T01:59:35;102342.59;;;-3.79;100.00
29549;BME280;16487;53.094;8.800;2022-12-17T02:02:06;102347.16;;;-3.88;100.00
29549;BME280;16487;53.094;8.800;2022-12-17T02:04:34;102344.44;;;-3.88;100.00
29549;BME280;16487;53.094;8.800;2022-12-17T02:07:17;102343.22;;;-3.82;100.00
29549;BME280;16487;53.094;8.800;2022-12-17T02:09:53;102345.50;;;-3.76;100.00
29549;BME280;16487;53.094;8.800;2022-12-17T02:12:30;102348.03;;;-3.79;100.00
29549;BME280;16487;53.094;8.800;2022-12-17T02:15:05;102347.56;;;-3.81;100.00
29549;BME280;16487;53.094;8.800;2022-12-17T02:17:40;102343.72;;;-3.80;100.00
29549;BME280;16487;53.094;8.800;2022-12-17T02:20:19;102338.25;;;-3.80;100.00
29549;BME280;16487;53.094;8.800;2022-12-17T02:22:53;102334.00;;;-3.73;100.00
29549;BME280;16487;53.094;8.800;2022-12-17T02:25:31;102342.69;;;-3.84;100.00
29549;BME280;16487;53.094;8.800;2022-12-17T02:28:04;102341.88;;;-3.71;100.00
29549;BME280;16487;53.094;8.800;2022-12-17T02:30:32;102341.25;;;-3.68;100.00
29549;BME280;16487;53.094;8.800;2022-12-17T02:33:01;102344.59;;;-3.71;100.00
29549;BME280;16487;53.094;8.800;2022-12-17T02:35:32;102349.53;;;-3.73;100.00
29549;BME280;16487;53.094;8.800;2022-12-17T02:38:00;102355.81;;;-3.73;100.00
29549;BME280;16487;53.094;8.800;2022-12-17T02:40:27;102350.16;;;-3.76;100.00
29549;BME280;16487;53.094;8.800;2022-12-17T02:42:55;102353.84;;;-3.72;100.00
29549;BME280;16487;53.094;8.800;2022-12-17T02:45:25;102357.94;;;-3.83;100.00
29549;BME280;16487;53.094;8.800;2022-12-17T02:47:53;102358.94;;;-3.79;100.00
29549;BME280;16487;53.094;8.800;2022-12-17T02:50:21;102359.63;;;-3.74;100.00
29549;BME280;16487;53.094;8.800;2022-12-17T02:52:49;102359.03;;;-3.84;100.00
29549;BME280;16487;53.094;8.800;2022-12-17T02:55:17;102364.78;;;-3.86;100.00
29549;BME280;16487;53.094;8.800;2022-12-17T02:57:45;102370.66;;;-3.92;100.00
29549;BME280;16487;53.094;8.800;2022-12-17T03:00:19;102380.94;;;-3.89;100.00
29549;BME280;16487;53.094;8.800;2022-12-17T03:02:48;102383.06;;;-4.00;100.00
29549;BME280;16487;53.094;8.800;2022-12-17T03:05:16;102385.53;;;-3.98;100.00
29549;BME280;16487;53.094;8.800;2022-12-17T03:08:03;102384.19;;;-4.01;100.00
29549;BME280;16487;53.094;8.800;2022-12-17T03:10:31;102390.56;;;-4.05;100.00
29549;BME280;16487;53.094;8.800;2022-12-17T03:13:00;102388.31;;;-4.03;100.00
29549;BME280;16487;53.094;8.800;2022-12-17T03:15:27;102404.56;;;-4.12;100.00
29549;BME280;16487;53.094;8.800;2022-12-17T03:17:56;102396.19;;;-4.15;100.00
29549;BME280;16487;53.094;8.800;2022-12-17T03:20:23;102398.44;;;-4.17;100.00
29549;BME280;16487;53.094;8.800;2022-12-17T03:22:50;102405.50;;;-4.16;100.00
29549;BME280;16487;53.094;8.800;2022-12-17T03:25:18;102411.56;;;-4.19;100.00
29549;BME280;16487;53.094;8.800;2022-12-17T03:27:45;102419.22;;;-4.21;100.00
29549;BME280;16487;53.094;8.800;2022-12-17T03:30:12;102408.72;;;-4.28;100.00
29549;BME280;16487;53.094;8.800;2022-12-17T03:32:40;102413.34;;;-4.28;100.00
29549;BME280;16487;53.094;8.800;2022-12-17T03:35:09;102408.03;;;-4.33;100.00
29549;BME280;16487;53.094;8.800;2022-12-17T03:37:36;102412.84;;;-4.30;100.00
29549;BME280;16487;53.094;8.800;2022-12-17T03:40:05;102416.38;;;-4.30;100.00
29549;BME280;16487;53.094;8.800;2022-12-17T03:42:32;102407.91;;;-4.28;100.00
29549;BME280;16487;53.094;8.800;2022-12-17T03:45:00;102411.56;;;-4.33;100.00
29549;BME280;16487;53.094;8.800;2022-12-17T03:47:30;102407.81;;;-4.37;100.00
29549;BME280;16487;53.094;8.800;2022-12-17T03:49:57;102404.28;;;-4.37;100.00
29549;BME280;16487;53.094;8.800;2022-12-17T03:52:26;102405.72;;;-4.40;100.00
29549;BME280;16487;53.094;8.800;2022-12-17T03:54:53;102407.72;;;-4.45;100.00
29549;BME280;16487;53.094;8.800;2022-12-17T03:57:21;102416.28;;;-4.38;100.00
29549;BME280;16487;53.094;8.800;2022-12-17T03:59:48;102416.19;;;-4.47;100.00
29549;BME280;16487;53.094;8.800;2022-12-17T04:02:15;102421.81;;;-4.43;100.00
29549;BME280;16487;53.094;8.800;2022-12-17T04:04:43;102422.81;;;-4.39;100.00
29549;BME280;16487;53.094;8.800;2022-12-17T04:07:10;102437.22;;;-4.52;100.00
29549;BME280;16487;53.094;8.800;2022-12-17T04:09:39;102439.53;;;-4.59;100.00
29549;BME280;16487;53.094;8.800;2022-12-17T04:12:07;102442.66;;;-4.66;100.00
29549;BME280;16487;53.094;8.800;2022-12-17T04:14:37;102446.75;;;-4.69;100.00
29549;BME280;16487;53.094;8.800;2022-12-17T04:17:04;102447.38;;;-4.72;100.00
29549;BME280;16487;53.094;8.800;2022-12-17T04:19:31;102449.38;;;-4.77;100.00
29549;BME280;16487;53.094;8.800;2022-12-17T04:21:59;102456.19;;;-4.80;100.00
29549;BME280;16487;53.094;8.800;2022-12-17T04:24:26;102452.91;;;-4.77;100.00
29549;BME280;16487;53.094;8.800;2022-12-17T04:26:55;102447.69;;;-4.92;100.00
29549;BME280;16487;53.094;8.800;2022-12-17T04:29:24;102455.59;;;-4.90;100.00
29549;BME280;16487;53.094;8.800;2022-12-17T04:31:51;102456.75;;;-4.96;100.00
29549;BME280;16487;53.094;8.800;2022-12-17T04:34:21;102458.66;;;-4.97;100.00
29549;BME280;16487;53.094;8.800;2022-12-17T04:36:52;102461.47;;;-5.02;100.00
29549;BME280;16487;53.094;8.800;2022-12-17T04:39:19;102457.53;;;-5.09;100.00
29549;BME280;16487;53.094;8.800;2022-12-17T04:41:46;102462.81;;;-5.18;100.00
29549;BME280;16487;53.094;8.800;2022-12-17T04:44:15;102466.63;;;-5.19;100.00
29549;BME280;16487;53.094;8.800;2022-12-17T04:46:42;102475.00;;;-5.15;100.00
29549;BME280;16487;53.094;8.800;2022-12-17T04:49:10;102481.63;;;-5.21;100.00
29549;BME280;16487;53.094;8.800;2022-12-17T04:51:37;102480.00;;;-5.22;100.00
29549;BME280;16487;53.094;8.800;2022-12-17T04:54:05;102479.78;;;-5.26;100.00
29549;BME280;16487;53.094;8.800;2022-12-17T04:56:34;102475.97;;;-5.25;100.00
29549;BME280;16487;53.094;8.800;2022-12-17T04:59:01;102469.50;;;-5.29;100.00
29549;BME280;16487;53.094;8.800;2022-12-17T05:01:30;102486.88;;;-5.30;100.00
29549;BME280;16487;53.094;8.800;2022-12-17T05:03:58;102490.22;;;-5.33;100.00
29549;BME280;16487;53.094;8.800;2022-12-17T05:06:25;102499.25;;;-5.37;100.00
29549;BME280;16487;53.094;8.800;2022-12-17T05:08:52;102494.63;;;-5.37;100.00
29549;BME280;16487;53.094;8.800;2022-12-17T05:11:20;102503.28;;;-5.35;100.00
29549;BME280;16487;53.094;8.800;2022-12-17T05:13:47;102504.00;;;-5.48;100.00
29549;BME280;16487;53.094;8.800;2022-12-17T05:16:15;102497.09;;;-5.59;100.00
29549;BME280;16487;53.094;8.800;2022-12-17T05:18:43;102500.09;;;-5.60;100.00
29549;BME280;16487;53.094;8.800;2022-12-17T05:21:11;102500.47;;;-5.48;100.00
29549;BME280;16487;53.094;8.800;2022-12-17T05:23:39;102498.19;;;-5.60;100.00
29549;BME280;16487;53.094;8.800;2022-12-17T05:26:16;102495.09;;;-5.72;100.00
29549;BME280;16487;53.094;8.800;2022-12-17T05:28:44;102508.38;;;-5.70;100.00
29549;BME280;16487;53.094;8.800;2022-12-17T05:31:11;102501.38;;;-5.76;100.00
29549;BME280;16487;53.094;8.800;2022-12-17T05:33:39;102528.13;;;-5.83;100.00
29549;BME280;16487;53.094;8.800;2022-12-17T05:36:10;102537.66;;;-5.86;100.00
29549;BME280;16487;53.094;8.800;2022-12-17T05:38:37;102537.72;;;-5.91;100.00
29549;BME280;16487;53.094;8.800;2022-12-17T05:41:05;102543.50;;;-5.98;100.00
29549;BME280;16487;53.094;8.800;2022-12-17T05:43:32;102542.50;;;-5.83;100.00
29549;BME280;16487;53.094;8.800;2022-12-17T05:46:01;102549.16;;;-5.94;100.00
29549;BME280;16487;53.094;8.800;2022-12-17T05:48:29;102555.19;;;-6.02;100.00
29549;BME280;16487;53.094;8.800;2022-12-17T05:50:56;102557.00;;;-5.93;100.00
29549;BME280;16487;53.094;8.800;2022-12-17T05:53:25;102555.38;;;-5.94;100.00
29549;BME280;16487;53.094;8.800;2022-12-17T05:55:52;102559.19;;;-5.95;100.00
29549;BME280;16487;53.094;8.800;2022-12-17T05:58:20;102571.94;;;-5.95;100.00
29549;BME280;16487;53.094;8.800;2022-12-17T06:00:47;102564.38;;;-5.98;100.00
29549;BME280;16487;53.094;8.800;2022-12-17T06:03:14;102571.94;;;-5.95;100.00
29549;BME280;16487;53.094;8.800;2022-12-17T06:05:42;102577.13;;;-5.99;100.00
29549;BME280;16487;53.094;8.800;2022-12-17T06:08:09;102584.16;;;-5.93;100.00
29549;BME280;16487;53.094;8.800;2022-12-17T06:10:38;102576.75;;;-5.87;100.00
29549;BME280;16487;53.094;8.800;2022-12-17T06:13:05;102580.03;;;-5.90;100.00
29549;BME280;16487;53.094;8.800;2022-12-17T06:15:32;102575.72;;;-5.91;100.00
29549;BME280;16487;53.094;8.800;2022-12-17T06:18:00;102475.88;;;-5.75;100.00
29549;BME280;16487;53.094;8.800;2022-12-17T06:20:27;102471.53;;;-5.76;100.00
29549;BME280;16487;53.094;8.800;2022-12-17T06:23:00;102485.31;;;-5.73;100.00
29549;BME280;16487;53.094;8.800;2022-12-17T06:25:27;102495.63;;;-5.70;100.00
29549;BME280;16487;53.094;8.800;2022-12-17T06:28:00;102494.75;;;-5.84;100.00
29549;BME280;16487;53.094;8.800;2022-12-17T06:30:28;102489.31;;;-5.84;100.00
29549;BME280;16487;53.094;8.800;2022-12-17T06:33:02;102498.63;;;-5.71;100.00
29549;BME280;16487;53.094;8.800;2022-12-17T06:35:30;102502.78;;;-5.98;100.00
29549;BME280;16487;53.094;8.800;2022-12-17T06:37:58;102492.75;;;-5.78;100.00
29549;BME280;16487;53.094;8.800;2022-12-17T06:40:25;102490.59;;;-5.82;100.00
29549;BME280;16487;53.094;8.800;2022-12-17T06:42:52;102484.88;;;-5.80;100.00
29549;BME280;16487;53.094;8.800;2022-12-17T06:45:21;102484.31;;;-5.77;100.00
29549;BME280;16487;53.094;8.800;2022-12-17T06:47:48;102491.78;;;-5.69;100.00
29549;BME280;16487;53.094;8.800;2022-12-17T06:50:16;102494.81;;;-5.70;100.00
29549;BME280;16487;53.094;8.800;2022-12-17T06:52:43;102463.91;;;-5.93;100.00
29549;BME280;16487;53.094;8.800;2022-12-17T06:55:10;102465.88;;;-5.80;100.00
29549;BME280;16487;53.094;8.800;2022-12-17T06:57:38;102216.66;;;-5.78;100.00
29549;BME280;16487;53.094;8.800;2022-12-17T07:00:11;102222.91;;;-5.77;100.00
29549;BME280;16487;53.094;8.800;2022-12-17T07:02:42;102219.88;;;-5.76;100.00
29549;BME280;16487;53.094;8.800;2022-12-17T07:05:10;102224.50;;;-5.76;100.00
29549;BME280;16487;53.094;8.800;2022-12-17T07:07:37;102235.44;;;-5.82;100.00
29549;BME280;16487;53.094;8.800;2022-12-17T07:10:08;102234.78;;;-5.73;100.00
29549;BME280;16487;53.094;8.800;2022-12-17T07:12:40;102236.59;;;-5.69;100.00
29549;BME280;16487;53.094;8.800;2022-12-17T07:15:08;102238.88;;;-5.76;100.00
29549;BME280;16487;53.094;8.800;2022-12-17T07:17:35;102227.16;;;-5.71;100.00
29549;BME280;16487;53.094;8.800;2022-12-17T07:20:05;102217.69;;;-5.74;100.00
29549;BME280;16487;53.094;8.800;2022-12-17T07:22:35;102147.69;;;-5.77;100.00
29549;BME280;16487;53.094;8.800;2022-12-17T07:25:02;102136.75;;;-5.85;100.00
29549;BME280;16487;53.094;8.800;2022-12-17T07:27:30;102134.72;;;-5.80;100.00
29549;BME280;16487;53.094;8.800;2022-12-17T07:29:57;102145.38;;;-5.97;100.00
29549;BME280;16487;53.094;8.800;2022-12-17T07:32:27;102129.22;;;-5.75;100.00
29549;BME280;16487;53.094;8.800;2022-12-17T07:34:54;102127.59;;;-5.76;100.00
29549;BME280;16487;53.094;8.800;2022-12-17T07:37:23;102122.06;;;-5.71;100.00
29549;BME280;16487;53.094;8.800;2022-12-17T07:39:50;102131.53;;;-5.68;100.00
29549;BME280;16487;53.094;8.800;2022-12-17T07:42:17;102134.03;;;-5.72;100.00
29549;BME280;16487;53.094;8.800;2022-12-17T07:44:47;102083.16;;;-5.66;100.00
29549;BME280;16487;53.094;8.800;2022-12-17T07:47:14;102039.22;;;-5.55;100.00
29549;BME280;16487;53.094;8.800;2022-12-17T07:49:42;102041.31;;;-5.52;100.00
29549;BME280;16487;53.094;8.800;2022-12-17T07:52:09;102038.91;;;-5.53;100.00
29549;BME280;16487;53.094;8.800;2022-12-17T07:54:38;102039.88;;;-5.36;100.00
29549;BME280;16487;53.094;8.800;2022-12-17T07:57:11;102041.75;;;-5.23;100.00
29549;BME280;16487;53.094;8.800;2022-12-17T07:59:38;102050.91;;;-5.19;100.00
29549;BME280;16487;53.094;8.800;2022-12-17T08:02:08;102052.53;;;-5.18;100.00
29549;BME280;16487;53.094;8.800;2022-12-17T08:04:36;102057.06;;;-5.27;100.00
29549;BME280;16487;53.094;8.800;2022-12-17T08:07:03;102055.34;;;-5.23;100.00
29549;BME280;16487;53.094;8.800;2022-12-17T08:09:39;102052.16;;;-5.25;100.00
29549;BME280;16487;53.094;8.800;2022-12-17T08:12:06;102058.75;;;-5.17;100.00
29549;BME280;16487;53.094;8.800;2022-12-17T08:14:34;102061.69;;;-5.27;100.00
29549;BME280;16487;53.094;8.800;2022-12-17T08:17:01;102065.03;;;-5.30;100.00
29549;BME280;16487;53.094;8.800;2022-12-17T08:19:28;102067.25;;;-5.32;100.00
29549;BME280;16487;53.094;8.800;2022-12-17T08:21:56;102064.38;;;-5.14;100.00
29549;BME280;16487;53.094;8.800;2022-12-17T08:24:23;102064.50;;;-5.19;100.00
29549;BME280;16487;53.094;8.800;2022-12-17T08:26:52;102070.22;;;-5.07;100.00
29549;BME280;16487;53.094;8.800;2022-12-17T08:29:19;102070.94;;;-5.15;100.00
29549;BME280;16487;53.094;8.800;2022-12-17T08:31:46;102068.31;;;-5.06;100.00
29549;BME280;16487;53.094;8.800;2022-12-17T08:34:13;102085.69;;;-5.07;100.00
29549;BME280;16487;53.094;8.800;2022-12-17T08:36:41;102082.50;;;-5.09;100.00
29549;BME280;16487;53.094;8.800;2022-12-17T08:39:08;102083.09;;;-5.12;100.00
29549;BME280;16487;53.094;8.800;2022-12-17T08:41:35;102086.59;;;-4.98;100.00
29549;BME280;16487;53.094;8.800;2022-12-17T08:44:04;102088.59;;;-5.04;100.00
29549;BME280;16487;53.094;8.800;2022-12-17T08:46:31;102087.50;;;-5.03;100.00
29549;BME280;16487;53.094;8.800;2022-12-17T08:48:59;102089.72;;;-5.05;100.00
29549;BME280;16487;53.094;8.800;2022-12-17T08:51:26;102093.97;;;-5.12;100.00
29549;BME280;16487;53.094;8.800;2022-12-17T08:53:54;102090.13;;;-4.98;100.00
29549;BME280;16487;53.094;8.800;2022-12-17T08:56:21;102098.94;;;-5.14;100.00
29549;BME280;16487;53.094;8.800;2022-12-17T08:58:48;102104.84;;;-5.12;100.00
29549;BME280;16487;53.094;8.800;2022-12-17T09:01:23;102105.31;;;-4.97;100.00
29549;BME280;16487;53.094;8.800;2022-12-17T09:03:50;102099.41;;;-4.99;100.00
29549;BME280;16487;53.094;8.800;2022-12-17T09:06:18;102112.97;;;-4.99;100.00
29549;BME280;16487;53.094;8.800;2022-12-17T09:08:45;102103.09;;;-4.95;100.00
29549;BME280;16487;53.094;8.800;2022-12-17T09:11:13;102114.69;;;-5.03;100.00
29549;BME280;16487;53.094;8.800;2022-12-17T09:13:40;102103.09;;;-4.95;100.00
29549;BME280;16487;53.094;8.800;2022-12-17T09:16:07;102103.34;;;-4.83;100.00
29549;BME280;16487;53.094;8.800;2022-12-17T09:18:36;102101.81;;;-4.97;100.00
29549;BME280;16487;53.094;8.800;2022-12-17T09:21:04;102107.03;;;-5.01;100.00
29549;BME280;16487;53.094;8.800;2022-12-17T09:23:31;102113.56;;;-5.02;100.00
29549;BME280;16487;53.094;8.800;2022-12-17T09:25:58;102105.19;;;-4.92;100.00
29549;BME280;16487;53.094;8.800;2022-12-17T09:28:26;102112.63;;;-4.84;100.00
29549;BME280;16487;53.094;8.800;2022-12-17T09:30:57;102114.47;;;-4.93;100.00
29549;BME280;16487;53.094;8.800;2022-12-17T09:33:24;102110.63;;;-4.92;100.00
29549;BME280;16487;53.094;8.800;2022-12-17T09:35:53;102114.47;;;-4.93;100.00
29549;BME280;16487;53.094;8.800;2022-12-17T09:38:20;102111.63;;;-4.88;100.00
29549;BME280;16487;53.094;8.800;2022-12-17T09:40:49;102102.91;;;-4.62;100.00
29549;BME280;16487;53.094;8.800;2022-12-17T09:43:24;102109.56;;;-4.69;100.00
29549;BME280;16487;53.094;8.800;2022-12-17T09:46:00;102107.28;;;-4.75;100.00
29549;BME280;16487;53.094;8.800;2022-12-17T09:48:39;102094.50;;;-4.88;100.00
29549;BME280;16487;53.094;8.800;2022-12-17T09:51:20;102095.50;;;-4.84;100.00
29549;BME280;16487;53.094;8.800;2022-12-17T09:53:55;102087.44;;;-4.76;100.00
29549;BME280;16487;53.094;8.800;2022-12-17T09:56:25;102084.09;;;-4.73;100.00
29549;BME280;16487;53.094;8.800;2022-12-17T09:58:54;102085.91;;;-4.68;100.00
29549;BME280;16487;53.094;8.800;2022-12-17T10:01:23;102085.75;;;-4.85;100.00
29549;BME280;16487;53.094;8.800;2022-12-17T10:03:51;102075.94;;;-4.73;100.00
29549;BME280;16487;53.094;8.800;2022-12-17T10:06:22;102066.56;;;-4.67;100.00
29549;BME280;16487;53.094;8.800;2022-12-17T10:08:57;102051.34;;;-4.45;100.00
29549;BME280;16487;53.094;8.800;2022-12-17T10:11:27;102052.56;;;-4.51;100.00
29549;BME280;16487;53.094;8.800;2022-12-17T10:14:01;102053.56;;;-4.47;100.00
29549;BME280;16487;53.094;8.800;2022-12-17T10:16:35;102056.22;;;-4.34;100.00
29549;BME280;16487;53.094;8.800;2022-12-17T10:19:05;102064.09;;;-4.54;100.00
29549;BME280;16487;53.094;8.800;2022-12-17T10:21:40;102050.53;;;-4.46;100.00
29549;BME280;16487;53.094;8.800;2022-12-17T10:24:09;102045.31;;;-4.34;100.00
29549;BME280;16487;53.094;8.800;2022-12-17T10:26:47;102049.06;;;-4.52;100.00
29549;BME280;16487;53.094;8.800;2022-12-17T10:29:17;102037.31;;;-4.39;100.00
29549;BME280;16487;53.094;8.800;2022-12-17T10:31:45;102028.00;;;-4.38;100.00
29549;BME280;16487;53.094;8.800;2022-12-17T10:34:14;102025.34;;;-4.29;100.00
29549;BME280;16487;53.094;8.800;2022-12-17T10:36:49;102029.28;;;-4.13;100.00
29549;BME280;16487;53.094;8.800;2022-12-17T10:39:20;102022.13;;;-4.01;100.00
29549;BME280;16487;53.094;8.800;2022-12-17T10:41:50;102023.53;;;-4.03;100.00
29549;BME280;16487;53.094;8.800;2022-12-17T10:44:23;102007.56;;;-3.96;100.00
29549;BME280;16487;53.094;8.800;2022-12-17T10:46:55;102008.56;;;-3.92;100.00
29549;BME280;16487;53.094;8.800;2022-12-17T10:49:25;102003.09;;;-3.92;100.00
29549;BME280;16487;53.094;8.800;2022-12-17T10:51:59;102002.47;;;-3.89;100.00
29549;BME280;16487;53.094;8.800;2022-12-17T10:54:28;102000.88;;;-3.90;100.00
29549;BME280;16487;53.094;8.800;2022-12-17T10:56:58;101996.78;;;-3.71;100.00
29549;BME280;16487;53.094;8.800;2022-12-17T10:59:35;102000.41;;;-3.84;100.00
29549;BME280;16487;53.094;8.800;2022-12-17T11:02:15;101996.28;;;-3.73;100.00
29549;BME280;16487;53.094;8.800;2022-12-17T11:04:51;101990.38;;;-3.66;100.00
29549;BME280;16487;53.094;8.800;2022-12-17T11:07:22;101982.97;;;-3.83;100.00
29549;BME280;16487;53.094;8.800;2022-12-17T11:09:52;101984.72;;;-3.78;100.00
29549;BME280;16487;53.094;8.800;2022-12-17T11:12:25;101972.44;;;-3.67;100.00
29549;BME280;16487;53.094;8.800;2022-12-17T11:15:03;101967.63;;;-3.53;100.00
29549;BME280;16487;53.094;8.800;2022-12-17T11:17:35;101968.28;;;-3.39;100.00
29549;BME280;16487;53.094;8.800;2022-12-17T11:20:07;101970.84;;;-3.42;100.00
29549;BME280;16487;53.094;8.800;2022-12-17T11:22:44;101980.31;;;-3.48;100.00
29549;BME280;16487;53.094;8.800;2022-12-17T11:25:25;101969.59;;;-3.28;100.00
29549;BME280;16487;53.094;8.800;2022-12-17T11:28:02;101961.56;;;-3.33;100.00
29549;BME280;16487;53.094;8.800;2022-12-17T11:30:38;101951.00;;;-3.26;100.00
29549;BME280;16487;53.094;8.800;2022-12-17T11:33:14;101948.28;;;-3.26;100.00
29549;BME280;16487;53.094;8.800;2022-12-17T11:35:47;101935.91;;;-3.15;100.00
29549;BME280;16487;53.094;8.800;2022-12-17T11:38:28;101915.06;;;-3.11;100.00
29549;BME280;16487;53.094;8.800;2022-12-17T11:41:05;101910.69;;;-2.86;100.00
29549;BME280;16487;53.094;8.800;2022-12-17T11:43:42;101909.19;;;-2.75;100.00
29549;BME280;16487;53.094;8.800;2022-12-17T11:46:22;101914.22;;;-3.03;100.00
29549;BME280;16487;53.094;8.800;2022-12-17T11:48:55;101913.16;;;-3.19;100.00
29549;BME280;16487;53.094;8.800;2022-12-17T11:51:30;101906.88;;;-3.11;100.00
29549;BME280;16487;53.094;8.800;2022-12-17T11:54:09;101895.47;;;-2.96;100.00
29549;BME280;16487;53.094;8.800;2022-12-17T11:56:42;101874.69;;;-2.34;100.00
29549;BME280;16487;53.094;8.800;2022-12-17T11:59:15;101864.03;;;-1.68;100.00
29549;BME280;16487;53.094;8.800;2022-12-17T12:01:55;101901.41;;;-2.39;100.00
29549;BME280;16487;53.094;8.800;2022-12-17T12:04:35;101895.28;;;-2.36;100.00
29549;BME280;16487;53.094;8.800;2022-12-17T12:07:11;101902.75;;;-2.62;100.00
29549;BME280;16487;53.094;8.800;2022-12-17T12:09:49;101906.75;;;-2.60;100.00
29549;BME280;16487;53.094;8.800;2022-12-17T12:12:28;101910.97;;;-2.71;100.00
29549;BME280;16487;53.094;8.800;2022-12-17T12:15:05;101898.00;;;-2.74;100.00
29549;BME280;16487;53.094;8.800;2022-12-17T12:17:43;101906.97;;;-2.82;100.00
29549;BME280;16487;53.094;8.800;2022-12-17T12:20:23;101912.59;;;-2.78;100.00
29549;BME280;16487;53.094;8.800;2022-12-17T12:23:02;101910.31;;;-2.68;100.00
29549;BME280;16487;53.094;8.800;2022-12-17T12:25:52;101916.59;;;-2.76;100.00
29549;BME280;16487;53.094;8.800;2022-12-17T12:28:28;101918.66;;;-2.64;100.00
29549;BME280;16487;53.094;8.800;2022-12-17T12:31:02;101922.00;;;-2.59;100.00
29549;BME280;16487;53.094;8.800;2022-12-17T12:33:46;101928.16;;;-2.70;100.00
29549;BME280;16487;53.094;8.800;2022-12-17T12:36:17;101928.75;;;-2.65;100.00
29549;BME280;16487;53.094;8.800;2022-12-17T12:38:55;101942.59;;;-2.78;100.00
29549;BME280;16487;53.094;8.800;2022-12-17T12:41:36;101937.78;;;-2.73;100.00
29549;BME280;16487;53.094;8.800;2022-12-17T12:44:11;101939.66;;;-2.65;100.00
29549;BME280;16487;53.094;8.800;2022-12-17T12:46:45;101943.84;;;-2.59;100.00
29549;BME280;16487;53.094;8.800;2022-12-17T12:49:22;101941.78;;;-2.62;100.00
29549;BME280;16487;53.094;8.800;2022-12-17T12:51:53;101968.41;;;-2.67;100.00
29549;BME280;16487;53.094;8.800;2022-12-17T12:54:27;101976.94;;;-2.77;100.00
29549;BME280;16487;53.094;8.800;2022-12-17T12:56:56;101975.81;;;-2.85;100.00